Time;durP1;ratioP1;P1;durP2;ratioP2;P2;SDS_P1;SDS_P2;PMS_P1;PMS_P2;Temp;Humidity;BMP_temperature;BMP_pressure;BME280_temperature;BME280_humidity;BME280_pressure;Samples;Min_cycle;Max_cycle;Signal;HPM_P1;HPM_P2
2024/04/24 00:01:03;;;;;;;;;;;;;;;21.39;30.38;96907.75;5317276;26;759;-76
2024/04/24 00:03:28;;;;;;;;;;;;;;;21.47;30.17;96917.53;5318153;26;1856;-77
2024/04/24 00:05:54;;;;;;;;;;;;;;;21.51;30.13;96912.50;5318932;26;764;-76
2024/04/24 00:08:19;;;;;;;;;;;;;;;21.41;30.25;96914.53;5347152;26;1772;-77
2024/04/24 00:10:45;;;;;;;;;;;;;;;21.27;30.30;96910.22;5347068;26;1061;-76
2024/04/24 00:13:10;;;;;;;;;;;;;;;21.56;29.91;96926.03;5318330;26;768;-77
2024/04/24 00:15:36;;;;;;;;;;;;;;;21.35;30.49;96915.59;5318097;26;813;-76
2024/04/24 00:18:02;;;;;;;;;;;;;;;21.47;30.04;96912.66;5318220;26;778;-77
2024/04/24 00:20:27;;;;;;;;;;;;;;;21.61;29.99;96896.31;5346736;26;976;-76
2024/04/24 00:22:53;;;;;;;;;;;;;;;21.31;30.30;96902.41;5289415;26;1850;-76
2024/04/24 00:25:18;;;;;;;;;;;;;;;21.32;30.13;96884.19;5350935;26;1602;-77
2024/04/24 00:27:44;;;;;;;;;;;;;;;21.38;30.29;96872.22;5348172;26;1277;-77
2024/04/24 00:30:13;;;;;;;;;;;;;;;21.07;30.53;96873.09;5350207;26;758;-77
2024/04/24 00:32:39;;;;;;;;;;;;;;;20.96;30.86;96872.78;5320539;26;707;-76
2024/04/24 00:35:05;;;;;;;;;;;;;;;21.40;30.04;96867.69;5249950;27;1185;-76
2024/04/24 00:37:30;;;;;;;;;;;;;;;21.33;30.10;96868.75;5250067;27;716;-76
2024/04/24 00:39:56;;;;;;;;;;;;;;;21.40;29.89;96861.22;5250085;27;1366;-76
2024/04/24 00:42:21;;;;;;;;;;;;;;;21.22;30.23;96861.97;5249900;27;1869;-76
2024/04/24 00:44:47;;;;;;;;;;;;;;;21.50;29.83;96851.47;5249870;27;869;-76
2024/04/24 00:47:15;;;;;;;;;;;;;;;21.33;29.90;96851.78;5249920;27;1214;-76
2024/04/24 00:49:41;;;;;;;;;;;;;;;21.40;29.90;96830.91;5250190;27;730;-77
2024/04/24 00:52:06;;;;;;;;;;;;;;;21.47;30.39;96824.13;5250310;27;849;-76
2024/04/24 00:54:32;;;;;;;;;;;;;;;21.90;30.44;96830.66;5249592;27;819;-77
2024/04/24 00:56:57;;;;;;;;;;;;;;;22.01;30.88;96811.91;5249975;27;896;-76
2024/04/24 00:59:23;;;;;;;;;;;;;;;22.20;30.98;96823.22;5221755;27;822;-77
2024/04/24 01:01:48;;;;;;;;;;;;;;;21.68;31.67;96830.88;5221917;27;1822;-77
2024/04/24 01:04:14;;;;;;;;;;;;;;;21.53;31.65;96808.88;5177910;27;864;-76
2024/04/24 01:06:39;;;;;;;;;;;;;;;21.64;31.15;96814.03;5201962;27;776;-77
2024/04/24 01:09:05;;;;;;;;;;;;;;;21.60;31.04;96819.06;5183585;27;830;-77
2024/04/24 01:11:33;;;;;;;;;;;;;;;21.60;30.87;96813.41;5177699;27;1220;-77
2024/04/24 01:13:59;;;;;;;;;;;;;;;21.46;31.13;96808.41;5150297;27;1133;-76
2024/04/24 01:16:26;;;;;;;;;;;;;;;21.37;30.97;96808.41;5177788;27;744;-76
2024/04/24 01:18:54;;;;;;;;;;;;;;;21.19;31.61;96801.47;5150527;27;915;-76
2024/04/24 01:21:23;;;;;;;;;;;;;;;21.53;30.90;96805.25;5150720;27;1132;-77
2024/04/24 01:23:55;;;;;;;;;;;;;;;21.64;30.54;96796.28;5150343;27;1850;-77
2024/04/24 01:26:25;;;;;;;;;;;;;;;21.38;31.11;96795.84;5216500;27;1195;-77
2024/04/24 01:28:51;;;;;;;;;;;;;;;21.39;31.11;96783.25;5243574;27;1204;-76
2024/04/24 01:31:16;;;;;;;;;;;;;;;21.45;30.86;96795.50;5243740;27;738;-76
2024/04/24 01:33:42;;;;;;;;;;;;;;;21.57;30.61;96797.38;5243693;27;922;-77
2024/04/24 01:36:07;;;;;;;;;;;;;;;21.17;31.52;96815.28;5331515;26;1115;-77
2024/04/24 01:38:33;;;;;;;;;;;;;;;21.40;30.97;96810.28;5317165;26;798;-77
2024/04/24 01:40:59;;;;;;;;;;;;;;;21.43;30.73;96815.78;5288631;26;751;-76
2024/04/24 01:43:24;;;;;;;;;;;;;;;21.30;31.13;96801.81;5378632;26;1832;-76
2024/04/24 01:45:50;;;;;;;;;;;;;;;21.25;30.95;96804.47;5382261;26;888;-77
2024/04/24 01:48:15;;;;;;;;;;;;;;;21.26;30.93;96784.19;5382085;26;761;-76
2024/04/24 01:50:41;;;;;;;;;;;;;;;21.37;30.73;96794.25;5416089;26;796;-76
2024/04/24 01:53:06;;;;;;;;;;;;;;;21.26;30.83;96778.53;5357052;26;1093;-76
2024/04/24 01:55:32;;;;;;;;;;;;;;;21.31;30.81;96780.75;5416262;26;805;-76
2024/04/24 01:57:58;;;;;;;;;;;;;;;21.06;31.11;96789.53;5385901;26;1101;-76
2024/04/24 02:00:23;;;;;;;;;;;;;;;21.36;30.58;96781.38;5357127;26;853;-77
2024/04/24 02:02:49;;;;;;;;;;;;;;;21.40;30.25;96762.19;5357173;26;1822;-76
2024/04/24 02:05:14;;;;;;;;;;;;;;;21.39;30.22;96763.44;5386364;26;770;-77
2024/04/24 02:07:40;;;;;;;;;;;;;;;21.32;30.69;96759.69;5350673;26;1342;-77
2024/04/24 02:10:05;;;;;;;;;;;;;;;21.33;30.68;96741.44;5322339;26;779;-76
2024/04/24 02:12:31;;;;;;;;;;;;;;;21.43;30.35;96730.91;5380446;26;974;-76
2024/04/24 02:14:57;;;;;;;;;;;;;;;21.45;30.15;96721.91;5351238;26;1000;-76
2024/04/24 02:17:22;;;;;;;;;;;;;;;21.36;30.40;96724.78;5350946;26;1701;-77
2024/04/24 02:19:48;;;;;;;;;;;;;;;21.39;30.38;96732.31;5380084;26;691;-76
2024/04/24 02:22:13;;;;;;;;;;;;;;;21.31;30.40;96734.69;5355163;26;1942;-76
2024/04/24 02:27:23;;;;;;;;;;;;;;;21.46;29.98;96732.00;5320506;26;1331;-76
2024/04/24 02:29:49;;;;;;;;;;;;;;;21.23;30.42;96741.91;5316273;26;806;-76
2024/04/24 02:32:14;;;;;;;;;;;;;;;21.30;30.32;96736.75;5345015;26;931;-76
2024/04/24 02:34:40;;;;;;;;;;;;;;;21.37;30.18;96740.50;5316605;26;710;-76
2024/04/24 02:37:05;;;;;;;;;;;;;;;21.23;30.49;96737.03;5345324;26;864;-77
2024/04/24 02:39:31;;;;;;;;;;;;;;;21.14;30.39;96739.88;5334140;26;857;-76
2024/04/24 02:41:56;;;;;;;;;;;;;;;21.37;30.22;96720.69;5316362;26;1826;-76
2024/04/24 02:44:22;;;;;;;;;;;;;;;21.25;30.46;96731.69;5316381;26;790;-76
2024/04/24 02:46:48;;;;;;;;;;;;;;;21.32;30.17;96719.28;5316296;26;742;-76
2024/04/24 02:49:13;;;;;;;;;;;;;;;21.30;30.24;96725.44;5315902;26;853;-76
2024/04/24 02:51:39;;;;;;;;;;;;;;;21.41;30.11;96710.00;5287149;26;1228;-76
2024/04/24 02:54:04;;;;;;;;;;;;;;;21.29;30.12;96714.53;5315952;26;798;-76
2024/04/24 02:56:30;;;;;;;;;;;;;;;21.25;30.27;96723.22;5316124;26;1235;-76
2024/04/24 02:58:55;;;;;;;;;;;;;;;21.31;29.96;96721.34;5315914;26;742;-76
2024/04/24 03:01:21;;;;;;;;;;;;;;;21.50;29.72;96729.78;5315984;26;823;-76
2024/04/24 03:03:46;;;;;;;;;;;;;;;21.20;30.05;96729.50;5315486;26;1861;-77
2024/04/24 03:06:12;;;;;;;;;;;;;;;21.14;30.51;96717.25;5315799;26;1557;-77
2024/04/24 03:08:38;;;;;;;;;;;;;;;21.00;30.40;96712.22;5344343;26;833;-77
2024/04/24 03:11:03;;;;;;;;;;;;;;;21.93;30.01;96713.63;5315859;26;794;-76
2024/04/24 03:13:29;;;;;;;;;;;;;;;22.13;30.42;96708.22;5241464;27;1352;-76
2024/04/24 03:15:54;;;;;;;;;;;;;;;21.88;30.92;96709.38;5245675;27;767;-77
2024/04/24 03:18:20;;;;;;;;;;;;;;;21.68;31.15;96709.94;5253139;27;1079;-76
2024/04/24 03:20:46;;;;;;;;;;;;;;;21.28;31.82;96716.59;5253200;27;707;-77
2024/04/24 03:23:11;;;;;;;;;;;;;;;21.56;30.89;96705.25;5281086;27;1830;-77
2024/04/24 03:25:37;;;;;;;;;;;;;;;21.24;31.47;96701.84;5309372;27;1075;-76
2024/04/24 03:28:02;;;;;;;;;;;;;;;21.35;31.22;96706.22;5281409;26;1127;-76
2024/04/24 03:30:28;;;;;;;;;;;;;;;21.08;31.49;96704.97;5309787;27;774;-77
2024/04/24 03:32:53;;;;;;;;;;;;;;;21.31;31.25;96695.88;5309673;27;810;-76
2024/04/24 03:35:19;;;;;;;;;;;;;;;21.43;30.91;96701.81;5254078;27;762;-77
2024/04/24 03:37:45;;;;;;;;;;;;;;;21.37;30.94;96698.06;5312624;27;1184;-76
2024/04/24 03:40:10;;;;;;;;;;;;;;;21.26;31.18;96698.53;5284472;27;1352;-77
2024/04/24 03:42:36;;;;;;;;;;;;;;;21.30;31.07;96688.66;5284553;27;1826;-76
2024/04/24 03:45:02;;;;;;;;;;;;;;;21.42;30.85;96684.06;5284192;27;777;-77
2024/04/24 03:47:27;;;;;;;;;;;;;;;21.37;30.72;96686.75;5284248;27;895;-76
2024/04/24 03:49:53;;;;;;;;;;;;;;;21.13;31.09;96690.19;5284364;26;972;-77
2024/04/24 03:52:19;;;;;;;;;;;;;;;21.26;30.94;96693.66;5382718;26;1088;-76
2024/04/24 03:54:45;;;;;;;;;;;;;;;21.08;31.17;96693.66;5347122;26;969;-76
2024/04/24 03:57:10;;;;;;;;;;;;;;;21.23;30.83;96683.28;5318700;26;1372;-76
2024/04/24 03:59:36;;;;;;;;;;;;;;;21.42;30.62;96683.28;5289882;26;1242;-76
2024/04/24 04:02:02;;;;;;;;;;;;;;;21.41;30.58;96699.47;5347920;26;1818;-76
2024/04/24 04:04:27;;;;;;;;;;;;;;;21.56;30.10;96693.94;5316885;26;1264;-77
2024/04/24 04:06:53;;;;;;;;;;;;;;;21.35;30.30;96701.38;5302761;27;1096;-77
2024/04/24 04:09:18;;;;;;;;;;;;;;;21.31;30.50;96690.22;5284120;27;1167;-77
2024/04/24 04:11:44;;;;;;;;;;;;;;;21.31;30.26;96695.88;5284445;27;1098;-76
2024/04/24 04:14:09;;;;;;;;;;;;;;;21.24;30.31;96707.50;5284119;27;983;-76
2024/04/24 04:16:35;;;;;;;;;;;;;;;21.22;30.34;96706.38;5284247;27;1221;-77
2024/04/24 04:19:01;;;;;;;;;;;;;;;21.21;30.24;96693.50;5278518;27;1654;-76
2024/04/24 04:21:26;;;;;;;;;;;;;;;21.21;30.41;96702.78;5250521;27;958;-76
2024/04/24 04:23:52;;;;;;;;;;;;;;;21.39;29.97;96701.19;5303361;27;1850;-76
2024/04/24 04:26:17;;;;;;;;;;;;;;;21.19;30.18;96698.84;5304232;26;1833;-76
2024/04/24 04:28:43;;;;;;;;;;;;;;;21.18;30.30;96689.56;5283834;27;1229;-77
2024/04/24 04:31:08;;;;;;;;;;;;;;;20.94;30.71;96688.66;5312688;27;1395;-76
2024/04/24 04:33:34;;;;;;;;;;;;;;;21.26;29.94;96699.31;5312401;27;1209;-77
2024/04/24 04:36:05;;;;;;;;;;;;;;;21.35;29.82;96692.06;5284454;27;950;-77
2024/04/24 04:38:31;;;;;;;;;;;;;;;21.22;30.27;96692.25;5283995;27;1033;-77
2024/04/24 04:40:57;;;;;;;;;;;;;;;21.89;29.96;96698.84;5312445;27;1032;-77
2024/04/24 04:43:22;;;;;;;;;;;;;;;22.04;30.39;96705.38;5290531;26;1872;-77
2024/04/24 04:45:48;;;;;;;;;;;;;;;22.12;30.57;96717.94;5382235;26;938;-77
2024/04/24 04:48:13;;;;;;;;;;;;;;;21.82;30.83;96714.91;5381093;26;943;-77
2024/04/24 04:50:39;;;;;;;;;;;;;;;21.47;31.22;96713.75;5352843;26;991;-77
2024/04/24 04:53:05;;;;;;;;;;;;;;;21.46;30.88;96712.19;5323762;26;1309;-77
2024/04/24 04:55:30;;;;;;;;;;;;;;;21.55;30.63;96717.81;5352871;26;1000;-77
2024/04/24 04:58:02;;;;;;;;;;;;;;;21.46;30.87;96715.81;5353038;26;1161;-77
2024/04/24 05:00:27;;;;;;;;;;;;;;;21.40;30.76;96714.06;5351808;26;1139;-77
2024/04/24 05:02:53;;;;;;;;;;;;;;;21.38;30.80;96719.44;5387760;26;1822;-77
2024/04/24 05:05:19;;;;;;;;;;;;;;;21.25;31.10;96711.88;5352043;26;1342;-76
2024/04/24 05:07:45;;;;;;;;;;;;;;;21.41;30.61;96710.00;5352529;26;1128;-76
2024/04/24 05:10:11;;;;;;;;;;;;;;;21.33;30.86;96710.31;5317572;26;1201;-76
2024/04/24 05:12:36;;;;;;;;;;;;;;;21.27;31.04;96712.19;5346721;26;982;-76
2024/04/24 05:15:02;;;;;;;;;;;;;;;21.38;30.52;96711.72;5346410;26;1180;-76
2024/04/24 05:17:28;;;;;;;;;;;;;;;21.36;30.81;96719.13;5346763;26;1238;-77
2024/04/24 05:19:53;;;;;;;;;;;;;;;21.25;30.92;96723.22;5346314;26;1282;-77
2024/04/24 05:22:19;;;;;;;;;;;;;;;21.29;30.89;96720.19;5317653;26;1822;-77
2024/04/24 05:24:45;;;;;;;;;;;;;;;21.44;30.47;96720.34;5311828;27;1217;-77
2024/04/24 05:29:54;;;;;;;;;;;;;;;21.28;30.67;96730.72;5287887;27;1010;-76
2024/04/24 05:32:20;;;;;;;;;;;;;;;21.32;30.46;96731.38;5283506;27;958;-77
2024/04/24 05:34:46;;;;;;;;;;;;;;;21.44;30.56;96731.69;5255337;27;1155;-77
2024/04/24 05:37:11;;;;;;;;;;;;;;;21.58;30.21;96736.69;5226579;27;955;-78
2024/04/24 05:39:37;;;;;;;;;;;;;;;21.50;30.11;96741.91;5215987;27;959;-77
2024/04/24 05:42:02;;;;;;;;;;;;;;;21.43;30.17;96735.78;5222207;27;1838;-76
2024/04/24 05:44:33;;;;;;;;;;;;;;;21.38;30.36;96733.59;5283416;27;1044;-76
2024/04/24 05:47:00;;;;;;;;;;;;;;;21.25;30.41;96726.03;5283145;27;1165;-77
2024/04/24 05:49:26;;;;;;;;;;;;;;;21.08;30.74;96733.25;5283260;27;1021;-77
2024/04/24 05:51:52;;;;;;;;;;;;;;;21.23;30.47;96731.38;5283356;27;1131;-77
2024/04/24 05:54:17;;;;;;;;;;;;;;;21.37;30.28;96726.34;5283066;27;993;-77
2024/04/24 05:56:43;;;;;;;;;;;;;;;21.46;29.98;96741.28;5371073;26;961;-77
2024/04/24 05:59:09;;;;;;;;;;;;;;;21.27;30.47;96742.53;5380334;26;1237;-77
2024/04/24 06:01:34;;;;;;;;;;;;;;;21.22;30.41;96732.63;5411921;26;1036;-77
2024/04/24 06:04:00;;;;;;;;;;;;;;;21.36;30.39;96736.13;5382072;26;1011;-77
2024/04/24 06:06:26;;;;;;;;;;;;;;;21.06;30.84;96738.63;5382391;26;995;-76
2024/04/24 06:08:51;;;;;;;;;;;;;;;21.15;30.37;96744.28;5411753;26;919;-77
2024/04/24 06:11:17;;;;;;;;;;;;;;;21.21;30.30;96742.38;5416291;26;1051;-77
2024/04/24 06:13:42;;;;;;;;;;;;;;;21.77;30.13;96749.53;5386694;26;1059;-77
2024/04/24 06:16:08;;;;;;;;;;;;;;;22.04;30.32;96756.38;5386574;26;1570;-77
2024/04/24 06:18:33;;;;;;;;;;;;;;;22.18;30.61;96767.03;5386497;26;1212;-77
2024/04/24 06:20:59;;;;;;;;;;;;;;;21.91;31.08;96770.72;5416203;26;1215;-77
2024/04/24 06:23:24;;;;;;;;;;;;;;;21.39;31.81;96763.44;5391969;26;1841;-77
2024/04/24 06:25:50;;;;;;;;;;;;;;;21.43;31.43;96758.41;5379955;26;1586;-78
2024/04/24 06:28:16;;;;;;;;;;;;;;;21.42;31.32;96759.69;5380303;26;1409;-77
2024/04/24 06:30:42;;;;;;;;;;;;;;;21.56;30.85;96761.88;5380073;26;1692;-77
2024/04/24 06:33:07;;;;;;;;;;;;;;;21.39;31.12;96757.78;5372306;26;1624;-77
2024/04/24 06:35:34;;;;;;;;;;;;;;;21.27;31.28;96768.78;5382716;26;1612;-78
2024/04/24 06:37:59;;;;;;;;;;;;;;;21.50;30.85;96760.91;5350884;26;1568;-77
2024/04/24 06:40:25;;;;;;;;;;;;;;;21.50;30.73;96764.53;5379848;26;1594;-78
2024/04/24 06:42:51;;;;;;;;;;;;;;;21.40;31.02;96759.34;5388992;26;1863;-78
2024/04/24 06:45:17;;;;;;;;;;;;;;;21.49;30.92;96751.63;5417196;26;941;-78
2024/04/24 06:47:43;;;;;;;;;;;;;;;21.41;30.75;96761.72;5358355;26;1064;-77
2024/04/24 06:50:08;;;;;;;;;;;;;;;21.32;30.74;96764.56;5416709;26;960;-78
2024/04/24 06:52:34;;;;;;;;;;;;;;;21.39;30.72;96771.94;5379293;26;1628;-78
2024/04/24 06:55:01;;;;;;;;;;;;;;;21.44;30.46;96768.47;5364820;26;1610;-77
2024/04/24 06:57:26;;;;;;;;;;;;;;;21.32;30.76;96773.03;5344501;26;1808;-77
2024/04/24 06:59:52;;;;;;;;;;;;;;;21.49;30.38;96776.31;5330093;26;1677;-78
2024/04/24 07:02:18;;;;;;;;;;;;;;;21.40;30.59;96776.31;5330410;26;1831;-78
2024/04/24 07:04:43;;;;;;;;;;;;;;;21.32;30.48;96776.66;5345068;26;1720;-77
2024/04/24 07:07:09;;;;;;;;;;;;;;;21.28;30.56;96773.16;5321643;26;1263;-77
2024/04/24 07:09:34;;;;;;;;;;;;;;;21.20;30.97;96796.59;5379671;26;1208;-77
2024/04/24 07:12:00;;;;;;;;;;;;;;;21.23;30.93;96790.00;5353677;26;1281;-78
2024/04/24 07:14:25;;;;;;;;;;;;;;;21.15;30.95;96797.22;5383017;26;1763;-77
2024/04/24 07:16:51;;;;;;;;;;;;;;;21.35;30.53;96802.41;5353406;26;1662;-78
2024/04/24 07:19:16;;;;;;;;;;;;;;;21.32;30.78;96799.28;5383350;26;964;-78
2024/04/24 07:21:42;;;;;;;;;;;;;;;21.04;31.05;96795.66;5383312;26;1826;-77
2024/04/24 07:24:08;;;;;;;;;;;;;;;21.08;30.97;96801.13;5328944;26;1139;-77
2024/04/24 07:26:33;;;;;;;;;;;;;;;21.16;30.93;96799.59;5348274;26;1020;-77
2024/04/24 07:28:59;;;;;;;;;;;;;;;21.28;30.61;96792.97;5354034;26;1035;-78
2024/04/24 07:31:24;;;;;;;;;;;;;;;21.25;30.58;96788.28;5353651;26;1172;-77
2024/04/24 07:33:50;;;;;;;;;;;;;;;21.50;30.18;96784.34;5382786;26;918;-77
2024/04/24 07:36:16;;;;;;;;;;;;;;;21.39;30.49;96795.34;5354221;26;1022;-78
2024/04/24 07:38:41;;;;;;;;;;;;;;;21.56;30.08;96801.47;5373703;26;1035;-78
2024/04/24 07:41:08;;;;;;;;;;;;;;;21.23;30.67;96796.44;5384465;26;954;-77
2024/04/24 07:43:33;;;;;;;;;;;;;;;21.35;30.37;96796.75;5355123;26;1821;-77
2024/04/24 07:45:59;;;;;;;;;;;;;;;21.45;30.23;96799.16;5384303;26;925;-77
2024/04/24 07:48:25;;;;;;;;;;;;;;;21.16;30.81;96802.41;5399425;26;1569;-77
2024/04/24 07:50:50;;;;;;;;;;;;;;;21.24;30.78;96803.69;5406267;26;1551;-77
2024/04/24 07:53:16;;;;;;;;;;;;;;;21.37;30.23;96797.09;5375193;26;1544;-77
2024/04/24 07:55:41;;;;;;;;;;;;;;;21.37;30.51;96794.25;5399630;26;1528;-77
2024/04/24 07:58:07;;;;;;;;;;;;;;;21.12;30.73;96801.78;5385812;26;937;-77
2024/04/24 08:00:33;;;;;;;;;;;;;;;21.30;30.26;96809.53;5383984;26;1106;-77
2024/04/24 08:02:58;;;;;;;;;;;;;;;21.09;31.19;96808.38;5383930;26;1833;-77
2024/04/24 08:05:24;;;;;;;;;;;;;;;21.78;30.81;96813.41;5382444;26;1001;-78
2024/04/24 08:07:50;;;;;;;;;;;;;;;21.89;31.24;96812.13;5353792;26;948;-77
2024/04/24 08:10:15;;;;;;;;;;;;;;;22.08;31.23;96816.47;5324436;26;1160;-78
2024/04/24 08:12:41;;;;;;;;;;;;;;;21.85;31.52;96818.72;5324170;26;1240;-77
2024/04/24 08:15:07;;;;;;;;;;;;;;;21.46;31.90;96819.72;5382342;26;1010;-78
2024/04/24 08:17:32;;;;;;;;;;;;;;;21.36;31.76;96810.47;5352682;26;1318;-77
2024/04/24 08:19:58;;;;;;;;;;;;;;;21.44;31.52;96806.03;5353241;26;994;-77
2024/04/24 08:22:23;;;;;;;;;;;;;;;21.44;31.27;96810.91;5322969;26;1857;-77
2024/04/24 08:24:49;;;;;;;;;;;;;;;21.51;30.87;96810.63;5382346;26;948;-78
2024/04/24 08:27:14;;;;;;;;;;;;;;;21.54;30.90;96815.31;5324113;26;1247;-77
2024/04/24 08:29:40;;;;;;;;;;;;;;;21.24;31.15;96815.00;5250345;27;1131;-77
2024/04/24 08:32:06;;;;;;;;;;;;;;;21.20;31.65;96813.56;5250352;27;953;-78
2024/04/24 08:34:31;;;;;;;;;;;;;;;21.28;31.36;96815.59;5222853;27;1004;-77
2024/04/24 08:36:57;;;;;;;;;;;;;;;21.07;31.59;96810.88;5259790;26;1852;-77
2024/04/24 08:39:23;;;;;;;;;;;;;;;21.12;31.62;96807.44;5299246;26;1629;-78
2024/04/24 08:41:48;;;;;;;;;;;;;;;21.38;31.34;96807.16;5270893;26;1862;-77
2024/04/24 08:44:14;;;;;;;;;;;;;;;21.51;31.00;96810.63;5272242;26;1678;-77
2024/04/24 08:46:40;;;;;;;;;;;;;;;21.55;30.97;96816.88;5274129;26;1688;-77
2024/04/24 08:49:06;;;;;;;;;;;;;;;21.48;31.07;96818.00;5305905;26;1687;-77
2024/04/24 08:51:31;;;;;;;;;;;;;;;21.36;31.27;96809.69;5284018;27;929;-77
2024/04/24 08:53:57;;;;;;;;;;;;;;;21.35;31.33;96822.22;5268137;26;1636;-77
2024/04/24 08:56:25;;;;;;;;;;;;;;;21.33;31.27;96811.38;5311769;27;1622;-77
2024/04/24 08:58:51;;;;;;;;;;;;;;;21.36;31.35;96818.16;5283548;27;1737;-77
2024/04/24 09:01:17;;;;;;;;;;;;;;;21.45;30.90;96818.13;5340802;26;1694;-77
2024/04/24 09:03:44;;;;;;;;;;;;;;;21.31;31.30;96817.53;5372435;26;1838;-77
2024/04/24 09:06:10;;;;;;;;;;;;;;;21.19;31.52;96829.78;5388001;26;966;-77
2024/04/24 09:08:36;;;;;;;;;;;;;;;21.42;31.01;96816.28;5387535;26;1163;-77
2024/04/24 09:11:01;;;;;;;;;;;;;;;21.33;31.01;96823.50;5358005;26;1630;-77
2024/04/24 09:13:27;;;;;;;;;;;;;;;21.51;30.80;96819.09;5387449;26;1655;-77
2024/04/24 09:15:53;;;;;;;;;;;;;;;21.41;31.03;96829.63;5346441;26;900;-77
2024/04/24 09:18:19;;;;;;;;;;;;;;;21.39;31.18;96829.31;5249465;27;1377;-77
2024/04/24 09:20:47;;;;;;;;;;;;;;;21.31;31.09;96830.91;5222359;27;909;-77
2024/04/24 09:23:17;;;;;;;;;;;;;;;21.39;31.17;96837.00;5223016;27;1827;-77
2024/04/24 09:25:42;;;;;;;;;;;;;;;21.57;30.55;96837.00;5250676;27;1421;-77
2024/04/24 09:28:08;;;;;;;;;;;;;;;21.37;31.17;96839.53;5215555;27;1627;-77
2024/04/24 09:30:34;;;;;;;;;;;;;;;21.30;31.22;96847.09;5216079;27;1665;-77
2024/04/24 09:32:59;;;;;;;;;;;;;;;21.37;30.94;96850.84;5215689;27;1030;-77
2024/04/24 09:35:25;;;;;;;;;;;;;;;21.32;30.95;96855.88;5216210;27;949;-77
2024/04/24 09:37:51;;;;;;;;;;;;;;;21.01;31.46;96858.00;5216471;27;1039;-77
2024/04/24 09:40:17;;;;;;;;;;;;;;;21.33;30.93;96857.44;5211618;27;1796;-77
2024/04/24 09:42:44;;;;;;;;;;;;;;;21.60;30.30;96853.03;5216166;27;1854;-77
2024/04/24 09:45:10;;;;;;;;;;;;;;;21.26;30.86;96840.75;5211095;27;1666;-77
2024/04/24 09:47:35;;;;;;;;;;;;;;;21.13;31.14;96842.94;5236364;27;1643;-77
2024/04/24 09:50:02;;;;;;;;;;;;;;;21.31;30.78;96843.00;5150131;27;1563;-77
2024/04/24 09:52:28;;;;;;;;;;;;;;;21.27;31.05;96842.31;5150578;27;1577;-77
2024/04/24 09:54:54;;;;;;;;;;;;;;;21.48;30.54;96837.00;5181749;27;1744;-77
2024/04/24 09:57:19;;;;;;;;;;;;;;;21.44;30.53;96827.91;5186466;27;1658;-77
2024/04/24 09:59:48;;;;;;;;;;;;;;;21.43;30.56;96826.31;5139774;27;1539;-77
2024/04/24 10:02:14;;;;;;;;;;;;;;;21.49;30.52;96825.22;5117778;27;1853;-77
2024/04/24 10:04:41;;;;;;;;;;;;;;;21.44;30.63;96814.53;5121444;27;998;-77
2024/04/24 10:07:06;;;;;;;;;;;;;;;21.49;30.68;96824.44;5175185;27;1637;-77
2024/04/24 10:09:32;;;;;;;;;;;;;;;21.29;30.87;96816.38;5175939;27;1553;-77
2024/04/24 10:12:08;;;;;;;;;;;;;;;21.66;30.28;96816.38;5176968;27;1522;-76
2024/04/24 10:14:34;;;;;;;;;;;;;;;21.28;30.79;96832.56;5176583;27;1593;-76
2024/04/24 10:17:00;;;;;;;;;;;;;;;21.47;30.39;96816.41;5173462;27;1601;-77
2024/04/24 10:19:25;;;;;;;;;;;;;;;21.46;30.46;96826.19;5176395;27;1737;-76
2024/04/24 10:21:51;;;;;;;;;;;;;;;21.32;30.47;96821.94;5223601;27;2545;-77
2024/04/24 10:24:16;;;;;;;;;;;;;;;21.35;30.49;96825.88;5224020;27;1596;-77
2024/04/24 10:26:42;;;;;;;;;;;;;;;21.42;30.56;96824.75;5263444;27;1486;-77
2024/04/24 10:29:08;;;;;;;;;;;;;;;21.25;30.81;96827.88;5253063;27;1632;-77
2024/04/24 10:31:33;;;;;;;;;;;;;;;21.46;30.36;96825.41;5360319;26;1542;-76
2024/04/24 10:33:59;;;;;;;;;;;;;;;21.32;30.45;96824.75;5401791;26;1621;-77
2024/04/24 10:36:25;;;;;;;;;;;;;;;21.40;30.30;96832.91;5355833;26;1593;-76
2024/04/24 10:38:52;;;;;;;;;;;;;;;21.27;30.75;96833.84;5366465;26;1549;-77
2024/04/24 10:41:18;;;;;;;;;;;;;;;21.34;30.37;96835.59;5368288;26;2184;-76
2024/04/24 10:43:43;;;;;;;;;;;;;;;21.28;30.52;96832.56;5363590;26;1830;-77
2024/04/24 10:46:09;;;;;;;;;;;;;;;21.25;30.70;96827.88;5373310;26;2225;-77
2024/04/24 10:48:56;;;;;;;;;;;;;;;21.27;30.55;96842.31;5359367;26;1673;-77
2024/04/24 10:51:34;;;;;;;;;;;;;;;21.35;30.40;96839.22;5358857;26;1658;-77
2024/04/24 10:54:19;;;;;;;;;;;;;;;21.54;30.22;96846.44;5338877;26;1620;-77
2024/04/24 10:56:47;;;;;;;;;;;;;;;21.43;30.28;96846.13;5412316;26;1704;-77
2024/04/24 10:59:13;;;;;;;;;;;;;;;21.28;30.68;96849.56;5339392;26;1545;-77
2024/04/24 11:01:45;;;;;;;;;;;;;;;21.31;30.38;96854.31;5361122;26;1598;-77
2024/04/24 11:04:12;;;;;;;;;;;;;;;21.26;30.76;96857.72;5360104;26;1673;-77
2024/04/24 11:06:38;;;;;;;;;;;;;;;21.53;30.20;96864.69;5402717;26;1630;-77
2024/04/24 11:09:04;;;;;;;;;;;;;;;21.29;30.42;96856.78;5388038;26;2320;-76
2024/04/24 11:11:29;;;;;;;;;;;;;;;21.36;30.76;96857.78;5399874;26;1631;-77
2024/04/24 11:13:59;;;;;;;;;;;;;;;21.11;30.89;96856.00;5371608;26;1543;-77
2024/04/24 11:16:24;;;;;;;;;;;;;;;21.41;30.40;96857.94;5388371;26;1534;-77
2024/04/24 11:18:50;;;;;;;;;;;;;;;21.57;30.31;96865.31;5413312;26;1691;-77
2024/04/24 11:21:25;;;;;;;;;;;;;;;21.46;30.28;96865.81;5378525;26;1482;-77
2024/04/24 11:23:56;;;;;;;;;;;;;;;21.31;30.53;96854.31;5400282;26;1833;-77
2024/04/24 11:26:34;;;;;;;;;;;;;;;21.36;30.54;96849.28;5403892;26;1542;-76
2024/04/24 11:29:03;;;;;;;;;;;;;;;21.41;30.56;96840.19;5386702;26;1860;-77
2024/04/24 11:31:29;;;;;;;;;;;;;;;21.41;30.50;96849.44;5403985;26;1576;-77
2024/04/24 11:33:55;;;;;;;;;;;;;;;21.36;30.72;96849.28;5388503;26;1703;-77
2024/04/24 11:36:21;;;;;;;;;;;;;;;21.31;30.66;96859.19;5384338;26;1101;-77
2024/04/24 11:38:46;;;;;;;;;;;;;;;21.34;30.71;96858.22;5384220;26;1030;-76
2024/04/24 11:41:12;;;;;;;;;;;;;;;21.49;30.38;96864.06;5384276;26;964;-76
2024/04/24 11:43:37;;;;;;;;;;;;;;;21.40;30.36;96862.03;5325842;26;1822;-77
2024/04/24 11:46:03;;;;;;;;;;;;;;;21.28;30.77;96866.53;5355035;26;996;-76
2024/04/24 11:48:29;;;;;;;;;;;;;;;21.37;30.62;96868.63;5384071;26;904;-76
2024/04/24 11:50:55;;;;;;;;;;;;;;;21.46;30.28;96862.19;5384187;26;943;-77
2024/04/24 11:53:21;;;;;;;;;;;;;;;21.41;30.48;96866.44;5355069;26;986;-77
2024/04/24 11:55:47;;;;;;;;;;;;;;;21.47;30.42;96872.25;5355106;26;949;-76
2024/04/24 11:58:12;;;;;;;;;;;;;;;21.10;30.83;96872.19;5354918;26;919;-77
2024/04/24 12:00:38;;;;;;;;;;;;;;;21.21;30.78;96872.50;5355128;26;1012;-77
2024/04/24 12:03:04;;;;;;;;;;;;;;;21.46;30.40;96860.13;5384037;26;1822;-77
2024/04/24 12:05:29;;;;;;;;;;;;;;;21.44;30.34;96867.50;5385865;26;921;-77
2024/04/24 12:07:55;;;;;;;;;;;;;;;21.44;30.32;96873.16;5384003;26;1059;-77
2024/04/24 12:10:21;;;;;;;;;;;;;;;21.31;30.53;96868.47;5384108;26;1073;-77
2024/04/24 12:12:47;;;;;;;;;;;;;;;21.16;30.67;96864.63;5354431;26;1124;-77
2024/04/24 12:15:14;;;;;;;;;;;;;;;21.13;30.92;96865.56;5354652;26;1152;-77
2024/04/24 12:17:40;;;;;;;;;;;;;;;21.35;30.42;96861.84;5388350;26;1310;-77
2024/04/24 12:20:05;;;;;;;;;;;;;;;21.35;30.37;96859.00;5358975;26;1237;-77
2024/04/24 12:22:31;;;;;;;;;;;;;;;21.25;30.40;96866.69;5347023;26;1823;-77
2024/04/24 12:24:56;;;;;;;;;;;;;;;21.42;30.36;96861.56;5318317;26;1026;-77
2024/04/24 12:27:22;;;;;;;;;;;;;;;21.41;30.08;96872.09;5346857;26;1110;-77
2024/04/24 12:29:47;;;;;;;;;;;;;;;21.52;30.04;96869.56;5347137;26;995;-77
2024/04/24 12:32:15;;;;;;;;;;;;;;;21.33;30.29;96862.31;5318046;26;1248;-77
2024/04/24 12:34:42;;;;;;;;;;;;;;;21.42;30.24;96864.38;5318361;26;1101;-77
2024/04/24 12:37:07;;;;;;;;;;;;;;;21.15;30.87;96865.91;5318286;26;961;-78
2024/04/24 12:39:33;;;;;;;;;;;;;;;21.36;30.29;96867.06;5306582;27;1273;-77
2024/04/24 12:41:58;;;;;;;;;;;;;;;21.37;30.63;96867.84;5278183;27;1823;-77
2024/04/24 12:44:24;;;;;;;;;;;;;;;21.23;30.69;96858.66;5278139;27;917;-78
2024/04/24 12:46:49;;;;;;;;;;;;;;;21.36;30.31;96854.94;5249875;27;1324;-77
2024/04/24 12:49:15;;;;;;;;;;;;;;;21.38;30.17;96864.53;5250037;27;1047;-77
2024/04/24 12:51:40;;;;;;;;;;;;;;;21.23;30.71;96867.16;5250049;27;1221;-76
2024/04/24 12:54:06;;;;;;;;;;;;;;;21.25;30.48;96867.50;5250144;27;1166;-77
2024/04/24 12:56:32;;;;;;;;;;;;;;;21.10;30.77;96849.56;5278309;27;1266;-77
2024/04/24 12:58:57;;;;;;;;;;;;;;;21.28;30.65;96863.69;5222268;27;1228;-77